Terminal Aerodrome Forecast
Issued by NWS

Home | Current Version | Previous Version | Text Only | Print | Product List | Glossary On
Versions: 1 2 3 4 5 6 7 8 9 10 11 12
000
FTUS42 TJSJ 221100 RRA
TAFKPK
TAF
TKPK 221139Z 2212/2312 07010KT P6SM VCSH SCT018 BKN035
      TEMPO 2212/2214 VRB12KT -SHRA BKN018
     FM221450 08014KT P6SM SCT020 SCT050
     FM222230 07011KT P6SM VCSH SCT018 SCT035=

USA.gov is the U.S. government's official web portal to all federal, state and local government web resources and services.